NIK334 LIRA-LIPZ
Flight info
| Callsign | NIK334 |
|---|---|
| Flight time | 0h 33m |
| Altitude | 34000 |
| Route | SOVAN L995 AMTEL Q58 GOXIN Z43 OTGIG |
| Aircraft | C700/M-SBDGHM1RWXY/LB2 |
Departure
| Time | 2026-04-28 14:00 |
|---|---|
| Airport | Ciampino–G. B. Pastine International Airport (LIRA) |
Arrival
| Time | 2026-04-28 14:34 |
|---|---|
| Airport | Venice Marco Polo Airport (LIPZ) |
| Time | Latitude | Longitude | Altitude | Speed | Heading |
|---|---|---|---|---|---|
| 2026-04-28 13:50 | 41.79200 | 12.59697 | 400 ft | 0 kts | 62° |
| 2026-04-28 13:58 | 41.79200 | 12.59698 | 400 ft | 1 kts | 69° |
| 2026-04-28 13:58 | 41.79194 | 12.59702 | 400 ft | 1 kts | 174° |
| 2026-04-28 13:58 | 41.79150 | 12.59676 | 400 ft | 14 kts | 189° |
| 2026-04-28 13:59 | 41.79021 | 12.59732 | 400 ft | 25 kts | 159° |
| 2026-04-28 13:59 | 41.79009 | 12.59871 | 400 ft | 22 kts | 66° |
| 2026-04-28 13:59 | 41.79075 | 12.60064 | 411 ft | 12 kts | 30° |
| 2026-04-28 13:59 | 41.79112 | 12.60048 | 408 ft | 1 kts | 335° |
| 2026-04-28 14:00 | 41.79214 | 12.59979 | 411 ft | 48 kts | 332° |
| 2026-04-28 14:00 | 41.79812 | 12.59563 | 412 ft | 142 kts | 331° |
| 2026-04-28 14:00 | 41.80773 | 12.58863 | 1168 ft | 170 kts | 330° |
| 2026-04-28 14:00 | 41.81947 | 12.57961 | 1958 ft | 216 kts | 328° |
| 2026-04-28 14:01 | 41.83371 | 12.56803 | 2811 ft | 256 kts | 330° |
| 2026-04-28 14:01 | 41.84998 | 12.55744 | 3953 ft | 266 kts | 330° |
| 2026-04-28 14:01 | 41.86378 | 12.54078 | 5136 ft | 270 kts | 309° |
| 2026-04-28 14:01 | 41.87350 | 12.51905 | 6339 ft | 274 kts | 292° |
| 2026-04-28 14:02 | 41.87841 | 12.49416 | 7565 ft | 279 kts | 275° |
| 2026-04-28 14:02 | 41.87787 | 12.46835 | 8796 ft | 283 kts | 261° |
| 2026-04-28 14:02 | 41.87199 | 12.44294 | 10069 ft | 288 kts | 246° |
| 2026-04-28 14:02 | 41.86372 | 12.41820 | 11373 ft | 294 kts | 246° |
| 2026-04-28 14:03 | 41.85541 | 12.39284 | 12710 ft | 299 kts | 246° |
| 2026-04-28 14:03 | 41.84692 | 12.36721 | 14049 ft | 302 kts | 245° |
| 2026-04-28 14:03 | 41.83834 | 12.34150 | 15381 ft | 302 kts | 246° |
| 2026-04-28 14:03 | 41.82984 | 12.31568 | 16696 ft | 301 kts | 247° |
| 2026-04-28 14:04 | 41.82564 | 12.28848 | 17924 ft | 300 kts | 269° |
| 2026-04-28 14:04 | 41.82890 | 12.26112 | 19119 ft | 298 kts | 292° |
| 2026-04-28 14:04 | 41.84147 | 12.23954 | 20242 ft | 297 kts | 324° |
| 2026-04-28 14:04 | 41.86027 | 12.22867 | 21362 ft | 292 kts | 343° |
| 2026-04-28 14:05 | 41.87969 | 12.22159 | 22449 ft | 286 kts | 344° |
| 2026-04-28 14:05 | 41.89856 | 12.21400 | 23475 ft | 280 kts | 341° |
| 2026-04-28 14:05 | 41.91678 | 12.20545 | 24427 ft | 275 kts | 340° |
| 2026-04-28 14:05 | 41.93446 | 12.19733 | 25306 ft | 270 kts | 341° |
| 2026-04-28 14:06 | 41.95212 | 12.18950 | 26132 ft | 265 kts | 341° |
| 2026-04-28 14:06 | 41.96947 | 12.18174 | 26901 ft | 261 kts | 341° |
| 2026-04-28 14:06 | 41.98663 | 12.17406 | 27621 ft | 258 kts | 341° |
| 2026-04-28 14:06 | 42.00357 | 12.16645 | 28298 ft | 255 kts | 342° |
| 2026-04-28 14:07 | 42.01509 | 12.16355 | 28700 ft | 255 kts | 358° |
| 2026-04-28 14:07 | 42.03276 | 12.16523 | 29297 ft | 254 kts | 5° |
| 2026-04-28 14:07 | 42.05033 | 12.16677 | 29862 ft | 254 kts | 0° |
| 2026-04-28 14:07 | 42.06878 | 12.16633 | 29921 ft | 277 kts | 357° |
| 2026-04-28 14:08 | 42.08887 | 12.16549 | 29938 ft | 301 kts | 359° |
| 2026-04-28 14:08 | 42.11068 | 12.16523 | 29944 ft | 324 kts | 359° |
| 2026-04-28 14:08 | 42.13388 | 12.16503 | 29948 ft | 346 kts | 359° |
| 2026-04-28 14:08 | 42.15866 | 12.16461 | 29950 ft | 365 kts | 359° |
| 2026-04-28 14:09 | 42.18473 | 12.16416 | 29949 ft | 383 kts | 359° |
| 2026-04-28 14:09 | 42.21193 | 12.16372 | 29947 ft | 395 kts | 359° |
| 2026-04-28 14:09 | 42.26758 | 12.16288 | 30011 ft | 403 kts | 359° |
| 2026-04-28 14:10 | 42.32366 | 12.16199 | 30010 ft | 406 kts | 359° |
| 2026-04-28 14:10 | 42.37994 | 12.16111 | 30008 ft | 405 kts | 359° |
| 2026-04-28 14:11 | 42.43612 | 12.16022 | 30007 ft | 404 kts | 359° |
| 2026-04-28 14:11 | 42.49252 | 12.15933 | 30008 ft | 405 kts | 359° |
| 2026-04-28 14:12 | 42.54881 | 12.15844 | 30009 ft | 404 kts | 359° |
| 2026-04-28 14:12 | 42.60550 | 12.15754 | 30009 ft | 419 kts | 359° |
| 2026-04-28 14:13 | 42.66480 | 12.15665 | 30054 ft | 425 kts | 356° |
| 2026-04-28 14:13 | 42.69469 | 12.15612 | 30046 ft | 439 kts | 356° |
| 2026-04-28 14:13 | 42.72550 | 12.15554 | 30046 ft | 453 kts | 356° |
| 2026-04-28 14:14 | 42.78915 | 12.15467 | 30037 ft | 459 kts | 356° |
| 2026-04-28 14:14 | 42.85317 | 12.15358 | 30032 ft | 462 kts | 356° |
| 2026-04-28 14:15 | 42.88546 | 12.15306 | 30029 ft | 466 kts | 356° |
| 2026-04-28 14:15 | 42.89578 | 12.15291 | 30028 ft | 466 kts | 356° |
| 2026-04-28 14:16 | 42.94013 | 12.15223 | 30034 ft | 467 kts | 356° |
| 2026-04-28 14:16 | 43.00514 | 12.15117 | 30027 ft | 466 kts | 356° |
| 2026-04-28 14:17 | 43.15899 | 12.14869 | 30026 ft | 466 kts | 356° |
| 2026-04-28 14:17 | 43.41835 | 12.14448 | 30033 ft | 467 kts | 356° |
| 2026-04-28 14:18 | 43.67841 | 12.14025 | 30031 ft | 466 kts | 356° |
| 2026-04-28 14:18 | 43.93738 | 12.13596 | 29296 ft | 466 kts | 356° |
| 2026-04-28 14:19 | 44.00601 | 12.13486 | 27990 ft | 454 kts | 355° |
| 2026-04-28 14:19 | 44.06863 | 12.13379 | 26803 ft | 446 kts | 355° |
| 2026-04-28 14:19 | 44.13024 | 12.13279 | 25633 ft | 440 kts | 355° |
| 2026-04-28 14:19 | 44.19098 | 12.13177 | 24484 ft | 431 kts | 355° |
| 2026-04-28 14:20 | 44.25038 | 12.13077 | 23320 ft | 423 kts | 355° |
| 2026-04-28 14:20 | 44.30869 | 12.12980 | 22205 ft | 414 kts | 355° |
| 2026-04-28 14:20 | 44.36520 | 12.12885 | 21135 ft | 408 kts | 355° |
| 2026-04-28 14:20 | 44.42151 | 12.12790 | 20066 ft | 401 kts | 355° |
| 2026-04-28 14:21 | 44.47690 | 12.12696 | 19027 ft | 395 kts | 356° |
| 2026-04-28 14:21 | 44.53153 | 12.12604 | 17959 ft | 389 kts | 356° |
| 2026-04-28 14:21 | 44.58515 | 12.12513 | 16939 ft | 383 kts | 356° |
| 2026-04-28 14:21 | 44.63817 | 12.12423 | 15933 ft | 378 kts | 357° |
| 2026-04-28 14:22 | 44.69040 | 12.12334 | 14942 ft | 373 kts | 357° |
| 2026-04-28 14:22 | 44.74208 | 12.12246 | 13967 ft | 369 kts | 357° |
| 2026-04-28 14:22 | 44.78330 | 12.12178 | 13143 ft | 350 kts | 357° |
| 2026-04-28 14:22 | 44.82612 | 12.12106 | 12327 ft | 320 kts | 357° |
| 2026-04-28 14:23 | 44.86916 | 12.12030 | 11513 ft | 302 kts | 357° |
| 2026-04-28 14:23 | 44.91078 | 12.11959 | 10726 ft | 295 kts | 357° |
| 2026-04-28 14:23 | 44.95162 | 12.11889 | 9947 ft | 292 kts | 358° |
| 2026-04-28 14:23 | 44.99192 | 12.11820 | 9161 ft | 288 kts | 358° |
| 2026-04-28 14:24 | 45.03053 | 12.11522 | 9037 ft | 270 kts | 353° |
| 2026-04-28 14:24 | 45.06666 | 12.10503 | 9034 ft | 263 kts | 332° |
| 2026-04-28 14:24 | 45.09167 | 12.07064 | 8213 ft | 256 kts | 296° |
| 2026-04-28 14:24 | 45.09863 | 12.02256 | 7397 ft | 249 kts | 263° |
| 2026-04-28 14:25 | 45.08565 | 11.97793 | 6549 ft | 248 kts | 232° |
| 2026-04-28 14:25 | 45.06017 | 11.94497 | 5725 ft | 247 kts | 223° |
| 2026-04-28 14:25 | 45.03680 | 11.91080 | 5210 ft | 233 kts | 247° |
| 2026-04-28 14:25 | 45.04383 | 11.87056 | 4777 ft | 226 kts | 321° |
| 2026-04-28 14:26 | 45.07361 | 11.86923 | 4181 ft | 226 kts | 28° |
| 2026-04-28 14:26 | 45.09789 | 11.89395 | 4052 ft | 218 kts | 34° |
| 2026-04-28 14:26 | 45.12359 | 11.91774 | 4048 ft | 222 kts | 33° |
| 2026-04-28 14:26 | 45.14946 | 11.94176 | 4048 ft | 223 kts | 33° |
| 2026-04-28 14:27 | 45.17020 | 11.96105 | 4045 ft | 223 kts | 33° |
| 2026-04-28 14:27 | 45.19624 | 11.98529 | 4042 ft | 224 kts | 33° |
| 2026-04-28 14:27 | 45.22224 | 12.00953 | 4041 ft | 224 kts | 33° |
| 2026-04-28 14:27 | 45.24821 | 12.03378 | 4040 ft | 224 kts | 33° |
| 2026-04-28 14:28 | 45.27461 | 12.05846 | 4041 ft | 224 kts | 33° |
| 2026-04-28 14:28 | 45.29153 | 12.07875 | 4034 ft | 224 kts | 43° |
| 2026-04-28 14:28 | 45.31438 | 12.10782 | 4035 ft | 223 kts | 41° |
| 2026-04-28 14:28 | 45.32610 | 12.12270 | 4029 ft | 217 kts | 41° |
| 2026-04-28 14:29 | 45.33699 | 12.13653 | 4011 ft | 204 kts | 41° |
| 2026-04-28 14:29 | 45.34731 | 12.14935 | 3825 ft | 195 kts | 41° |
| 2026-04-28 14:29 | 45.35742 | 12.16229 | 3574 ft | 194 kts | 43° |
| 2026-04-28 14:29 | 45.36735 | 12.17515 | 3323 ft | 192 kts | 41° |
| 2026-04-28 14:30 | 45.37708 | 12.18733 | 3086 ft | 174 kts | 43° |
| 2026-04-28 14:30 | 45.38568 | 12.19869 | 2855 ft | 166 kts | 42° |
| 2026-04-28 14:30 | 45.39401 | 12.20906 | 2663 ft | 155 kts | 42° |
| 2026-04-28 14:30 | 45.40145 | 12.21883 | 2458 ft | 137 kts | 43° |
| 2026-04-28 14:31 | 45.40832 | 12.22749 | 2276 ft | 131 kts | 43° |
| 2026-04-28 14:31 | 45.42576 | 12.24983 | 1832 ft | 127 kts | 44° |
| 2026-04-28 14:31 | 45.44553 | 12.27545 | 1322 ft | 127 kts | 46° |
| 2026-04-28 14:31 | 45.45222 | 12.28382 | 1154 ft | 128 kts | 43° |
| 2026-04-28 14:32 | 45.45883 | 12.29244 | 987 ft | 130 kts | 45° |
| 2026-04-28 14:32 | 45.46402 | 12.29916 | 848 ft | 129 kts | 44° |
| 2026-04-28 14:32 | 45.47083 | 12.30770 | 657 ft | 131 kts | 45° |
| 2026-04-28 14:32 | 45.47756 | 12.31639 | 393 ft | 131 kts | 44° |
| 2026-04-28 14:33 | 45.48427 | 12.32481 | 236 ft | 129 kts | 46° |
| 2026-04-28 14:33 | 45.49095 | 12.33355 | 55 ft | 129 kts | 46° |
| 2026-04-28 14:33 | 45.49705 | 12.34138 | 7 ft | 104 kts | 46° |
| 2026-04-28 14:33 | 45.50107 | 12.34669 | 10 ft | 61 kts | 40° |
| 2026-04-28 14:34 | 45.50614 | 12.35036 | 9 ft | 10 kts | 281° |
| 2026-04-28 14:34 | 45.50607 | 12.34929 | 9 ft | 11 kts | 275° |
| 2026-04-28 14:34 | 45.50609 | 12.34798 | 10 ft | 15 kts | 263° |
| 2026-04-28 14:35 | 45.50543 | 12.34673 | 10 ft | 18 kts | 220° |
| 2026-04-28 14:35 | 45.50434 | 12.34545 | 10 ft | 22 kts | 223° |
| 2026-04-28 14:35 | 45.50313 | 12.34382 | 11 ft | 26 kts | 224° |
| 2026-04-28 14:35 | 45.50175 | 12.34202 | 10 ft | 29 kts | 223° |
| 2026-04-28 14:36 | 45.50039 | 12.34027 | 10 ft | 14 kts | 221° |
| 2026-04-28 14:36 | 45.50020 | 12.34001 | 10 ft | 6 kts | 232° |
| 2026-04-28 14:36 | 45.50029 | 12.33950 | 10 ft | 8 kts | 312° |
| 2026-04-28 14:36 | 45.50055 | 12.33909 | 10 ft | 0 kts | 311° |
| 2026-04-28 14:37 | 45.50058 | 12.33904 | 10 ft | 0 kts | 311° |